sensor_id;sensor_type;location;lat;lon;timestamp;P1;durP1;ratioP1;P2;durP2;ratioP2
76310;SDS011;65120;59.304;18.294;2023-10-13T00:01:46;0.30;;;0.00;;
76310;SDS011;65120;59.304;18.294;2023-10-13T00:04:16;0.17;;;0.00;;
76310;SDS011;65120;59.304;18.294;2023-10-13T00:06:50;0.45;;;0.08;;
76310;SDS011;65120;59.304;18.294;2023-10-13T00:09:17;0.45;;;0.10;;
76310;SDS011;65120;59.304;18.294;2023-10-13T00:11:45;1.00;;;0.10;;
76310;SDS011;65120;59.304;18.294;2023-10-13T00:14:12;3.50;;;0.10;;
76310;SDS011;65120;59.304;18.294;2023-10-13T00:16:43;0.95;;;0.00;;
76310;SDS011;65120;59.304;18.294;2023-10-13T00:19:26;1.65;;;0.00;;
76310;SDS011;65120;59.304;18.294;2023-10-13T00:21:54;0.85;;;0.00;;
76310;SDS011;65120;59.304;18.294;2023-10-13T00:24:33;1.05;;;0.00;;
76310;SDS011;65120;59.304;18.294;2023-10-13T00:27:10;0.17;;;0.10;;
76310;SDS011;65120;59.304;18.294;2023-10-13T00:29:53;0.40;;;0.00;;
76310;SDS011;65120;59.304;18.294;2023-10-13T00:32:41;2.45;;;0.10;;
76310;SDS011;65120;59.304;18.294;2023-10-13T00:35:10;0.52;;;0.08;;
76310;SDS011;65120;59.304;18.294;2023-10-13T00:37:49;0.20;;;0.05;;
76310;SDS011;65120;59.304;18.294;2023-10-13T00:40:18;0.30;;;0.00;;
76310;SDS011;65120;59.304;18.294;2023-10-13T00:43:05;0.38;;;0.00;;
76310;SDS011;65120;59.304;18.294;2023-10-13T00:45:47;2.90;;;0.10;;
76310;SDS011;65120;59.304;18.294;2023-10-13T00:48:21;0.10;;;0.00;;
76310;SDS011;65120;59.304;18.294;2023-10-13T00:50:50;0.60;;;0.10;;
76310;SDS011;65120;59.304;18.294;2023-10-13T00:53:21;0.65;;;0.00;;
76310;SDS011;65120;59.304;18.294;2023-10-13T00:55:48;3.53;;;0.30;;
76310;SDS011;65120;59.304;18.294;2023-10-13T00:58:15;1.35;;;0.10;;
76310;SDS011;65120;59.304;18.294;2023-10-13T01:00:47;0.52;;;0.00;;
76310;SDS011;65120;59.304;18.294;2023-10-13T01:03:22;2.70;;;0.10;;
76310;SDS011;65120;59.304;18.294;2023-10-13T01:05:52;0.82;;;0.10;;
76310;SDS011;65120;59.304;18.294;2023-10-13T01:08:31;1.95;;;0.10;;
76310;SDS011;65120;59.304;18.294;2023-10-13T01:11:00;0.43;;;0.10;;
76310;SDS011;65120;59.304;18.294;2023-10-13T01:13:27;0.70;;;0.00;;
76310;SDS011;65120;59.304;18.294;2023-10-13T01:15:56;1.38;;;0.10;;
76310;SDS011;65120;59.304;18.294;2023-10-13T01:18:25;1.02;;;0.00;;
76310;SDS011;65120;59.304;18.294;2023-10-13T01:20:53;4.32;;;0.00;;
76310;SDS011;65120;59.304;18.294;2023-10-13T01:23:26;1.13;;;0.00;;
76310;SDS011;65120;59.304;18.294;2023-10-13T01:25:54;0.10;;;0.00;;
76310;SDS011;65120;59.304;18.294;2023-10-13T01:28:22;4.05;;;0.10;;
76310;SDS011;65120;59.304;18.294;2023-10-13T01:30:49;1.40;;;0.03;;
76310;SDS011;65120;59.304;18.294;2023-10-13T01:33:16;2.10;;;0.10;;
76310;SDS011;65120;59.304;18.294;2023-10-13T01:35:42;1.23;;;0.10;;
76310;SDS011;65120;59.304;18.294;2023-10-13T01:38:12;0.65;;;0.05;;
76310;SDS011;65120;59.304;18.294;2023-10-13T01:40:41;2.47;;;0.30;;
76310;SDS011;65120;59.304;18.294;2023-10-13T01:43:08;0.80;;;0.00;;
76310;SDS011;65120;59.304;18.294;2023-10-13T01:45:36;0.47;;;0.10;;
76310;SDS011;65120;59.304;18.294;2023-10-13T01:48:12;1.00;;;0.20;;
76310;SDS011;65120;59.304;18.294;2023-10-13T01:50:41;2.17;;;0.00;;
76310;SDS011;65120;59.304;18.294;2023-10-13T01:53:12;2.47;;;0.00;;
76310;SDS011;65120;59.304;18.294;2023-10-13T01:55:44;0.77;;;0.00;;
76310;SDS011;65120;59.304;18.294;2023-10-13T01:58:10;0.65;;;0.10;;
76310;SDS011;65120;59.304;18.294;2023-10-13T02:00:44;1.38;;;0.10;;
76310;SDS011;65120;59.304;18.294;2023-10-13T02:03:11;1.08;;;0.10;;
76310;SDS011;65120;59.304;18.294;2023-10-13T02:05:41;1.50;;;0.10;;
76310;SDS011;65120;59.304;18.294;2023-10-13T02:08:12;0.40;;;0.03;;
76310;SDS011;65120;59.304;18.294;2023-10-13T02:10:45;0.20;;;0.00;;
76310;SDS011;65120;59.304;18.294;2023-10-13T02:13:12;2.88;;;0.10;;
76310;SDS011;65120;59.304;18.294;2023-10-13T02:15:42;0.73;;;0.00;;
76310;SDS011;65120;59.304;18.294;2023-10-13T02:18:11;0.45;;;0.10;;
76310;SDS011;65120;59.304;18.294;2023-10-13T02:20:41;3.25;;;0.05;;
76310;SDS011;65120;59.304;18.294;2023-10-13T02:23:09;1.08;;;0.10;;
76310;SDS011;65120;59.304;18.294;2023-10-13T02:25:36;1.65;;;0.10;;
76310;SDS011;65120;59.304;18.294;2023-10-13T02:28:12;0.28;;;0.10;;
76310;SDS011;65120;59.304;18.294;2023-10-13T02:30:47;0.40;;;0.32;;
76310;SDS011;65120;59.304;18.294;2023-10-13T02:33:15;0.52;;;0.00;;
76310;SDS011;65120;59.304;18.294;2023-10-13T02:35:47;0.30;;;0.10;;
76310;SDS011;65120;59.304;18.294;2023-10-13T02:38:18;1.70;;;0.10;;
76310;SDS011;65120;59.304;18.294;2023-10-13T02:40:54;0.00;;;0.00;;
76310;SDS011;65120;59.304;18.294;2023-10-13T02:43:22;2.58;;;0.10;;
76310;SDS011;65120;59.304;18.294;2023-10-13T02:45:53;1.70;;;0.05;;
76310;SDS011;65120;59.304;18.294;2023-10-13T02:48:24;1.17;;;0.15;;
76310;SDS011;65120;59.304;18.294;2023-10-13T02:50:55;0.35;;;0.08;;
76310;SDS011;65120;59.304;18.294;2023-10-13T02:53:27;1.88;;;0.13;;
76310;SDS011;65120;59.304;18.294;2023-10-13T02:55:54;1.10;;;0.10;;
76310;SDS011;65120;59.304;18.294;2023-10-13T02:58:25;1.63;;;0.00;;
76310;SDS011;65120;59.304;18.294;2023-10-13T03:01:04;0.38;;;0.10;;
76310;SDS011;65120;59.304;18.294;2023-10-13T03:03:42;0.30;;;0.00;;
76310;SDS011;65120;59.304;18.294;2023-10-13T03:06:12;2.17;;;0.10;;
76310;SDS011;65120;59.304;18.294;2023-10-13T03:08:40;0.38;;;0.10;;
76310;SDS011;65120;59.304;18.294;2023-10-13T03:11:08;1.85;;;0.10;;
76310;SDS011;65120;59.304;18.294;2023-10-13T03:13:37;0.63;;;0.10;;
76310;SDS011;65120;59.304;18.294;2023-10-13T03:16:10;0.60;;;0.10;;
76310;SDS011;65120;59.304;18.294;2023-10-13T03:18:41;2.25;;;0.10;;
76310;SDS011;65120;59.304;18.294;2023-10-13T03:21:16;2.15;;;0.10;;
76310;SDS011;65120;59.304;18.294;2023-10-13T03:23:54;1.67;;;0.10;;
76310;SDS011;65120;59.304;18.294;2023-10-13T03:26:31;4.72;;;0.20;;
76310;SDS011;65120;59.304;18.294;2023-10-13T03:29:03;1.15;;;0.10;;
76310;SDS011;65120;59.304;18.294;2023-10-13T03:31:38;0.52;;;0.10;;
76310;SDS011;65120;59.304;18.294;2023-10-13T03:34:05;0.90;;;0.10;;
76310;SDS011;65120;59.304;18.294;2023-10-13T03:36:37;1.85;;;0.10;;
76310;SDS011;65120;59.304;18.294;2023-10-13T03:39:23;1.17;;;0.15;;
76310;SDS011;65120;59.304;18.294;2023-10-13T03:41:56;2.17;;;0.10;;
76310;SDS011;65120;59.304;18.294;2023-10-13T03:44:27;1.65;;;0.10;;
76310;SDS011;65120;59.304;18.294;2023-10-13T03:46:56;0.28;;;0.10;;
76310;SDS011;65120;59.304;18.294;2023-10-13T03:49:33;0.50;;;0.50;;
76310;SDS011;65120;59.304;18.294;2023-10-13T03:52:03;1.23;;;0.32;;
76310;SDS011;65120;59.304;18.294;2023-10-13T03:54:38;1.00;;;0.10;;
76310;SDS011;65120;59.304;18.294;2023-10-13T03:57:06;0.80;;;0.10;;
76310;SDS011;65120;59.304;18.294;2023-10-13T03:59:38;1.65;;;0.10;;
76310;SDS011;65120;59.304;18.294;2023-10-13T04:02:11;1.83;;;0.17;;
76310;SDS011;65120;59.304;18.294;2023-10-13T04:04:46;3.55;;;0.10;;
76310;SDS011;65120;59.304;18.294;2023-10-13T04:07:19;1.58;;;0.10;;
76310;SDS011;65120;59.304;18.294;2023-10-13T04:09:59;5.43;;;0.68;;
76310;SDS011;65120;59.304;18.294;2023-10-13T04:12:44;1.50;;;0.10;;
76310;SDS011;65120;59.304;18.294;2023-10-13T04:15:29;1.95;;;0.20;;
76310;SDS011;65120;59.304;18.294;2023-10-13T04:18:06;0.45;;;0.10;;
76310;SDS011;65120;59.304;18.294;2023-10-13T04:20:55;1.42;;;0.10;;
76310;SDS011;65120;59.304;18.294;2023-10-13T04:23:33;3.20;;;0.20;;
76310;SDS011;65120;59.304;18.294;2023-10-13T04:26:20;0.43;;;0.08;;
76310;SDS011;65120;59.304;18.294;2023-10-13T04:28:46;3.90;;;0.10;;
76310;SDS011;65120;59.304;18.294;2023-10-13T04:31:23;1.48;;;0.10;;
76310;SDS011;65120;59.304;18.294;2023-10-13T04:34:06;2.45;;;0.10;;
76310;SDS011;65120;59.304;18.294;2023-10-13T04:36:41;1.40;;;0.17;;
76310;SDS011;65120;59.304;18.294;2023-10-13T04:39:10;3.05;;;0.10;;
76310;SDS011;65120;59.304;18.294;2023-10-13T04:41:42;1.80;;;0.20;;
76310;SDS011;65120;59.304;18.294;2023-10-13T04:44:08;1.80;;;0.10;;
76310;SDS011;65120;59.304;18.294;2023-10-13T04:46:54;2.05;;;0.13;;
76310;SDS011;65120;59.304;18.294;2023-10-13T04:49:35;0.98;;;0.10;;
76310;SDS011;65120;59.304;18.294;2023-10-13T04:52:17;3.22;;;0.10;;
76310;SDS011;65120;59.304;18.294;2023-10-13T04:55:06;1.65;;;0.13;;
76310;SDS011;65120;59.304;18.294;2023-10-13T05:00:18;1.77;;;0.10;;
76310;SDS011;65120;59.304;18.294;2023-10-13T05:03:04;0.98;;;0.10;;
76310;SDS011;65120;59.304;18.294;2023-10-13T05:05:48;0.82;;;0.20;;
76310;SDS011;65120;59.304;18.294;2023-10-13T05:08:32;0.80;;;0.10;;
76310;SDS011;65120;59.304;18.294;2023-10-13T05:11:16;1.92;;;0.20;;
76310;SDS011;65120;59.304;18.294;2023-10-13T05:14:00;1.67;;;0.10;;
76310;SDS011;65120;59.304;18.294;2023-10-13T05:16:45;6.13;;;0.20;;
76310;SDS011;65120;59.304;18.294;2023-10-13T05:19:30;0.90;;;0.15;;
76310;SDS011;65120;59.304;18.294;2023-10-13T05:22:14;2.53;;;0.20;;
76310;SDS011;65120;59.304;18.294;2023-10-13T05:24:58;2.75;;;0.10;;
76310;SDS011;65120;59.304;18.294;2023-10-13T05:27:43;3.60;;;0.13;;
76310;SDS011;65120;59.304;18.294;2023-10-13T05:30:27;1.35;;;0.17;;
76310;SDS011;65120;59.304;18.294;2023-10-13T05:33:10;1.23;;;0.10;;
76310;SDS011;65120;59.304;18.294;2023-10-13T05:35:56;3.53;;;0.13;;
76310;SDS011;65120;59.304;18.294;2023-10-13T05:38:40;1.40;;;0.30;;
76310;SDS011;65120;59.304;18.294;2023-10-13T05:41:25;10.45;;;1.58;;
76310;SDS011;65120;59.304;18.294;2023-10-13T05:44:09;7.43;;;3.20;;
76310;SDS011;65120;59.304;18.294;2023-10-13T05:46:53;4.53;;;0.45;;
76310;SDS011;65120;59.304;18.294;2023-10-13T05:49:59;2.70;;;0.32;;
76310;SDS011;65120;59.304;18.294;2023-10-13T05:52:32;4.93;;;0.20;;
76310;SDS011;65120;59.304;18.294;2023-10-13T05:55:16;1.67;;;0.15;;
76310;SDS011;65120;59.304;18.294;2023-10-13T05:58:03;2.75;;;0.20;;
76310;SDS011;65120;59.304;18.294;2023-10-13T06:00:47;6.65;;;0.82;;
76310;SDS011;65120;59.304;18.294;2023-10-13T06:03:31;3.67;;;0.45;;
76310;SDS011;65120;59.304;18.294;2023-10-13T06:06:27;1.60;;;0.20;;
76310;SDS011;65120;59.304;18.294;2023-10-13T06:09:12;4.63;;;1.52;;
76310;SDS011;65120;59.304;18.294;2023-10-13T06:14:44;1.05;;;0.20;;
76310;SDS011;65120;59.304;18.294;2023-10-13T06:17:29;2.08;;;0.10;;
76310;SDS011;65120;59.304;18.294;2023-10-13T06:20:13;1.67;;;0.20;;
76310;SDS011;65120;59.304;18.294;2023-10-13T06:22:58;4.00;;;0.20;;
76310;SDS011;65120;59.304;18.294;2023-10-13T06:25:43;2.05;;;0.10;;
76310;SDS011;65120;59.304;18.294;2023-10-13T06:28:34;1.92;;;0.10;;
76310;SDS011;65120;59.304;18.294;2023-10-13T06:31:13;6.20;;;0.10;;
76310;SDS011;65120;59.304;18.294;2023-10-13T06:33:47;2.03;;;0.13;;
76310;SDS011;65120;59.304;18.294;2023-10-13T06:36:14;1.23;;;0.20;;
76310;SDS011;65120;59.304;18.294;2023-10-13T06:38:42;5.35;;;0.52;;
76310;SDS011;65120;59.304;18.294;2023-10-13T06:41:11;1.08;;;0.10;;
76310;SDS011;65120;59.304;18.294;2023-10-13T06:43:45;3.25;;;0.10;;
76310;SDS011;65120;59.304;18.294;2023-10-13T06:46:24;5.68;;;0.30;;
76310;SDS011;65120;59.304;18.294;2023-10-13T06:48:53;2.58;;;0.20;;
76310;SDS011;65120;59.304;18.294;2023-10-13T06:51:20;3.47;;;0.17;;
76310;SDS011;65120;59.304;18.294;2023-10-13T06:53:47;0.77;;;0.10;;
76310;SDS011;65120;59.304;18.294;2023-10-13T06:56:18;4.20;;;0.40;;
76310;SDS011;65120;59.304;18.294;2023-10-13T06:58:53;1.85;;;0.20;;
76310;SDS011;65120;59.304;18.294;2023-10-13T07:01:24;2.53;;;0.45;;
76310;SDS011;65120;59.304;18.294;2023-10-13T07:03:52;5.80;;;0.17;;
76310;SDS011;65120;59.304;18.294;2023-10-13T07:06:19;6.57;;;0.30;;
76310;SDS011;65120;59.304;18.294;2023-10-13T07:08:46;1.92;;;0.30;;
76310;SDS011;65120;59.304;18.294;2023-10-13T07:11:18;5.20;;;0.20;;
76310;SDS011;65120;59.304;18.294;2023-10-13T07:13:58;2.47;;;0.20;;
76310;SDS011;65120;59.304;18.294;2023-10-13T07:16:34;4.47;;;0.30;;
76310;SDS011;65120;59.304;18.294;2023-10-13T07:19:02;5.35;;;0.32;;
76310;SDS011;65120;59.304;18.294;2023-10-13T07:21:31;1.85;;;0.20;;
76310;SDS011;65120;59.304;18.294;2023-10-13T07:23:59;2.65;;;0.40;;
76310;SDS011;65120;59.304;18.294;2023-10-13T07:26:35;7.68;;;0.60;;
76310;SDS011;65120;59.304;18.294;2023-10-13T07:29:07;3.50;;;0.20;;
76310;SDS011;65120;59.304;18.294;2023-10-13T07:31:35;7.40;;;0.40;;
76310;SDS011;65120;59.304;18.294;2023-10-13T07:34:03;5.20;;;0.52;;
76310;SDS011;65120;59.304;18.294;2023-10-13T07:36:38;15.50;;;1.58;;
76310;SDS011;65120;59.304;18.294;2023-10-13T07:39:08;5.82;;;0.50;;
76310;SDS011;65120;59.304;18.294;2023-10-13T07:41:51;9.10;;;0.30;;
76310;SDS011;65120;59.304;18.294;2023-10-13T07:44:28;5.57;;;0.30;;
76310;SDS011;65120;59.304;18.294;2023-10-13T07:46:58;4.25;;;0.40;;
76310;SDS011;65120;59.304;18.294;2023-10-13T07:49:28;4.15;;;0.38;;
76310;SDS011;65120;59.304;18.294;2023-10-13T07:52:02;4.55;;;0.32;;
76310;SDS011;65120;59.304;18.294;2023-10-13T07:54:43;4.13;;;0.50;;
76310;SDS011;65120;59.304;18.294;2023-10-13T07:57:26;1.95;;;0.20;;
76310;SDS011;65120;59.304;18.294;2023-10-13T07:59:55;10.68;;;3.10;;
76310;SDS011;65120;59.304;18.294;2023-10-13T08:02:37;7.78;;;1.05;;
76310;SDS011;65120;59.304;18.294;2023-10-13T08:05:17;4.22;;;0.57;;
76310;SDS011;65120;59.304;18.294;2023-10-13T08:07:50;8.20;;;0.35;;
76310;SDS011;65120;59.304;18.294;2023-10-13T08:10:21;14.18;;;3.53;;
76310;SDS011;65120;59.304;18.294;2023-10-13T08:12:56;4.60;;;0.68;;
76310;SDS011;65120;59.304;18.294;2023-10-13T08:15:24;5.38;;;1.25;;
76310;SDS011;65120;59.304;18.294;2023-10-13T08:17:58;5.18;;;0.20;;
76310;SDS011;65120;59.304;18.294;2023-10-13T08:20:29;4.40;;;0.45;;
76310;SDS011;65120;59.304;18.294;2023-10-13T08:23:03;6.35;;;0.30;;
76310;SDS011;65120;59.304;18.294;2023-10-13T08:25:39;5.78;;;0.50;;
76310;SDS011;65120;59.304;18.294;2023-10-13T08:28:21;8.20;;;0.32;;
76310;SDS011;65120;59.304;18.294;2023-10-13T08:31:05;5.75;;;0.50;;
76310;SDS011;65120;59.304;18.294;2023-10-13T08:33:47;3.58;;;0.40;;
76310;SDS011;65120;59.304;18.294;2023-10-13T08:36:14;3.97;;;0.35;;
76310;SDS011;65120;59.304;18.294;2023-10-13T08:38:55;3.40;;;0.77;;
76310;SDS011;65120;59.304;18.294;2023-10-13T08:41:22;6.18;;;1.58;;
76310;SDS011;65120;59.304;18.294;2023-10-13T08:43:55;6.70;;;0.40;;
76310;SDS011;65120;59.304;18.294;2023-10-13T08:46:30;10.20;;;0.77;;
76310;SDS011;65120;59.304;18.294;2023-10-13T08:49:16;4.20;;;0.20;;
76310;SDS011;65120;59.304;18.294;2023-10-13T08:51:48;18.77;;;4.18;;
76310;SDS011;65120;59.304;18.294;2023-10-13T08:54:30;11.57;;;1.83;;
76310;SDS011;65120;59.304;18.294;2023-10-13T08:57:13;8.82;;;1.88;;
76310;SDS011;65120;59.304;18.294;2023-10-13T09:00:01;20.38;;;5.20;;
76310;SDS011;65120;59.304;18.294;2023-10-13T09:02:44;7.25;;;0.50;;
76310;SDS011;65120;59.304;18.294;2023-10-13T09:05:53;16.27;;;0.50;;
76310;SDS011;65120;59.304;18.294;2023-10-13T09:08:31;5.72;;;0.50;;
76310;SDS011;65120;59.304;18.294;2023-10-13T09:11:09;3.30;;;0.20;;
76310;SDS011;65120;59.304;18.294;2023-10-13T09:13:39;3.92;;;0.38;;
76310;SDS011;65120;59.304;18.294;2023-10-13T09:16:13;6.65;;;0.40;;
76310;SDS011;65120;59.304;18.294;2023-10-13T09:18:47;5.22;;;0.32;;
76310;SDS011;65120;59.304;18.294;2023-10-13T09:21:17;3.35;;;0.30;;
76310;SDS011;65120;59.304;18.294;2023-10-13T09:24:16;4.35;;;1.67;;
76310;SDS011;65120;59.304;18.294;2023-10-13T09:26:47;7.75;;;1.25;;
76310;SDS011;65120;59.304;18.294;2023-10-13T09:29:15;10.30;;;0.70;;
76310;SDS011;65120;59.304;18.294;2023-10-13T09:31:45;8.23;;;0.60;;
76310;SDS011;65120;59.304;18.294;2023-10-13T09:34:20;4.38;;;0.50;;
76310;SDS011;65120;59.304;18.294;2023-10-13T09:36:49;5.82;;;0.40;;
76310;SDS011;65120;59.304;18.294;2023-10-13T09:39:22;8.65;;;0.40;;
76310;SDS011;65120;59.304;18.294;2023-10-13T09:42:02;6.35;;;0.40;;
76310;SDS011;65120;59.304;18.294;2023-10-13T09:44:35;2.88;;;0.30;;
76310;SDS011;65120;59.304;18.294;2023-10-13T09:47:07;8.48;;;0.80;;
76310;SDS011;65120;59.304;18.294;2023-10-13T09:49:43;9.77;;;0.60;;
76310;SDS011;65120;59.304;18.294;2023-10-13T09:52:11;1.55;;;0.28;;
76310;SDS011;65120;59.304;18.294;2023-10-13T09:54:47;8.77;;;0.57;;
76310;SDS011;65120;59.304;18.294;2023-10-13T09:57:24;7.15;;;1.10;;
76310;SDS011;65120;59.304;18.294;2023-10-13T10:00:00;8.98;;;0.52;;
76310;SDS011;65120;59.304;18.294;2023-10-13T10:02:41;7.40;;;1.00;;
76310;SDS011;65120;59.304;18.294;2023-10-13T10:05:09;10.52;;;0.95;;
76310;SDS011;65120;59.304;18.294;2023-10-13T10:07:53;8.93;;;0.60;;
76310;SDS011;65120;59.304;18.294;2023-10-13T10:10:21;6.20;;;0.40;;
76310;SDS011;65120;59.304;18.294;2023-10-13T10:12:48;7.15;;;0.57;;
76310;SDS011;65120;59.304;18.294;2023-10-13T10:15:22;5.97;;;0.80;;
76310;SDS011;65120;59.304;18.294;2023-10-13T10:17:57;7.15;;;0.50;;
76310;SDS011;65120;59.304;18.294;2023-10-13T10:20:28;7.60;;;0.40;;
76310;SDS011;65120;59.304;18.294;2023-10-13T10:23:05;12.73;;;1.08;;
76310;SDS011;65120;59.304;18.294;2023-10-13T10:25:35;6.85;;;2.10;;
76310;SDS011;65120;59.304;18.294;2023-10-13T10:28:03;7.78;;;0.55;;
76310;SDS011;65120;59.304;18.294;2023-10-13T10:30:32;8.02;;;0.98;;
76310;SDS011;65120;59.304;18.294;2023-10-13T10:33:02;2.38;;;0.30;;
76310;SDS011;65120;59.304;18.294;2023-10-13T10:35:36;7.35;;;0.40;;
76310;SDS011;65120;59.304;18.294;2023-10-13T10:38:08;6.97;;;0.70;;
76310;SDS011;65120;59.304;18.294;2023-10-13T10:40:49;3.17;;;0.40;;
76310;SDS011;65120;59.304;18.294;2023-10-13T10:43:17;14.25;;;1.02;;
76310;SDS011;65120;59.304;18.294;2023-10-13T10:45:46;3.25;;;0.57;;
76310;SDS011;65120;59.304;18.294;2023-10-13T10:48:17;15.00;;;1.05;;
76310;SDS011;65120;59.304;18.294;2023-10-13T10:50:44;11.00;;;0.80;;
76310;SDS011;65120;59.304;18.294;2023-10-13T10:53:18;5.63;;;1.42;;
76310;SDS011;65120;59.304;18.294;2023-10-13T10:55:47;6.88;;;0.40;;
76310;SDS011;65120;59.304;18.294;2023-10-13T10:58:14;7.30;;;0.50;;
76310;SDS011;65120;59.304;18.294;2023-10-13T11:01:04;16.35;;;0.90;;
76310;SDS011;65120;59.304;18.294;2023-10-13T11:03:37;7.68;;;0.50;;
76310;SDS011;65120;59.304;18.294;2023-10-13T11:06:11;7.85;;;1.33;;
76310;SDS011;65120;59.304;18.294;2023-10-13T11:08:45;6.05;;;0.73;;
76310;SDS011;65120;59.304;18.294;2023-10-13T11:11:18;6.68;;;0.45;;
76310;SDS011;65120;59.304;18.294;2023-10-13T11:13:55;10.38;;;0.70;;
76310;SDS011;65120;59.304;18.294;2023-10-13T11:16:44;11.82;;;0.90;;
76310;SDS011;65120;59.304;18.294;2023-10-13T11:19:17;6.32;;;0.73;;
76310;SDS011;65120;59.304;18.294;2023-10-13T11:21:50;7.15;;;0.52;;
76310;SDS011;65120;59.304;18.294;2023-10-13T11:24:19;7.60;;;0.70;;
76310;SDS011;65120;59.304;18.294;2023-10-13T11:26:48;9.40;;;0.47;;
76310;SDS011;65120;59.304;18.294;2023-10-13T11:29:19;7.57;;;0.40;;
76310;SDS011;65120;59.304;18.294;2023-10-13T11:31:59;11.02;;;0.60;;
76310;SDS011;65120;59.304;18.294;2023-10-13T11:34:29;7.57;;;0.55;;
76310;SDS011;65120;59.304;18.294;2023-10-13T11:37:05;14.35;;;1.10;;
76310;SDS011;65120;59.304;18.294;2023-10-13T11:39:46;9.65;;;0.60;;
76310;SDS011;65120;59.304;18.294;2023-10-13T11:42:12;8.73;;;0.65;;
76310;SDS011;65120;59.304;18.294;2023-10-13T11:44:42;4.18;;;0.50;;
76310;SDS011;65120;59.304;18.294;2023-10-13T11:47:10;13.93;;;0.73;;
76310;SDS011;65120;59.304;18.294;2023-10-13T11:49:52;9.80;;;0.63;;
76310;SDS011;65120;59.304;18.294;2023-10-13T11:52:22;10.20;;;1.10;;
76310;SDS011;65120;59.304;18.294;2023-10-13T11:54:51;9.07;;;1.20;;
76310;SDS011;65120;59.304;18.294;2023-10-13T11:57:18;9.10;;;1.60;;
76310;SDS011;65120;59.304;18.294;2023-10-13T11:59:46;13.65;;;0.80;;
76310;SDS011;65120;59.304;18.294;2023-10-13T12:02:21;9.93;;;1.17;;
76310;SDS011;65120;59.304;18.294;2023-10-13T12:05:07;10.88;;;1.10;;
76310;SDS011;65120;59.304;18.294;2023-10-13T12:07:42;8.07;;;0.50;;
76310;SDS011;65120;59.304;18.294;2023-10-13T12:10:13;6.78;;;1.10;;
76310;SDS011;65120;59.304;18.294;2023-10-13T12:12:58;9.60;;;0.50;;
76310;SDS011;65120;59.304;18.294;2023-10-13T12:15:31;11.90;;;0.50;;
76310;SDS011;65120;59.304;18.294;2023-10-13T12:18:13;10.70;;;1.85;;
76310;SDS011;65120;59.304;18.294;2023-10-13T12:20:42;12.32;;;1.02;;
76310;SDS011;65120;59.304;18.294;2023-10-13T12:23:12;8.38;;;0.65;;
76310;SDS011;65120;59.304;18.294;2023-10-13T12:25:55;14.30;;;1.20;;
76310;SDS011;65120;59.304;18.294;2023-10-13T12:28:25;12.13;;;0.60;;
76310;SDS011;65120;59.304;18.294;2023-10-13T12:30:54;11.02;;;0.55;;
76310;SDS011;65120;59.304;18.294;2023-10-13T12:33:22;9.52;;;0.93;;
76310;SDS011;65120;59.304;18.294;2023-10-13T12:35:59;13.45;;;1.02;;
76310;SDS011;65120;59.304;18.294;2023-10-13T12:38:32;11.38;;;1.00;;
76310;SDS011;65120;59.304;18.294;2023-10-13T12:41:49;8.50;;;0.88;;
76310;SDS011;65120;59.304;18.294;2023-10-13T12:44:33;9.95;;;0.60;;
76310;SDS011;65120;59.304;18.294;2023-10-13T12:47:17;12.60;;;1.25;;
76310;SDS011;65120;59.304;18.294;2023-10-13T12:50:01;21.10;;;0.70;;
76310;SDS011;65120;59.304;18.294;2023-10-13T12:52:40;15.45;;;0.50;;
76310;SDS011;65120;59.304;18.294;2023-10-13T12:55:10;12.07;;;0.60;;
76310;SDS011;65120;59.304;18.294;2023-10-13T12:57:38;11.38;;;1.00;;
76310;SDS011;65120;59.304;18.294;2023-10-13T13:00:14;16.92;;;2.80;;
76310;SDS011;65120;59.304;18.294;2023-10-13T13:02:50;24.52;;;1.55;;
76310;SDS011;65120;59.304;18.294;2023-10-13T13:05:20;13.02;;;1.00;;
76310;SDS011;65120;59.304;18.294;2023-10-13T13:07:55;13.77;;;0.60;;
76310;SDS011;65120;59.304;18.294;2023-10-13T13:10:21;13.95;;;1.02;;
76310;SDS011;65120;59.304;18.294;2023-10-13T13:13:04;13.15;;;1.33;;
76310;SDS011;65120;59.304;18.294;2023-10-13T13:15:31;22.20;;;2.03;;
76310;SDS011;65120;59.304;18.294;2023-10-13T13:17:58;11.63;;;0.90;;
76310;SDS011;65120;59.304;18.294;2023-10-13T13:20:35;10.80;;;0.60;;
76310;SDS011;65120;59.304;18.294;2023-10-13T13:23:05;11.85;;;1.00;;
76310;SDS011;65120;59.304;18.294;2023-10-13T13:25:32;15.20;;;1.10;;
76310;SDS011;65120;59.304;18.294;2023-10-13T13:28:07;19.48;;;1.20;;
76310;SDS011;65120;59.304;18.294;2023-10-13T13:30:35;10.45;;;1.17;;
76310;SDS011;65120;59.304;18.294;2023-10-13T13:33:03;8.65;;;0.98;;
76310;SDS011;65120;59.304;18.294;2023-10-13T13:35:35;15.23;;;1.40;;
76310;SDS011;65120;59.304;18.294;2023-10-13T13:38:02;13.40;;;1.15;;
76310;SDS011;65120;59.304;18.294;2023-10-13T13:40:36;14.63;;;1.10;;
76310;SDS011;65120;59.304;18.294;2023-10-13T13:43:03;11.70;;;0.75;;
76310;SDS011;65120;59.304;18.294;2023-10-13T13:45:31;19.17;;;1.45;;
76310;SDS011;65120;59.304;18.294;2023-10-13T13:48:00;14.57;;;0.70;;
76310;SDS011;65120;59.304;18.294;2023-10-13T13:50:32;12.75;;;0.80;;
76310;SDS011;65120;59.304;18.294;2023-10-13T13:53:06;12.23;;;2.67;;
76310;SDS011;65120;59.304;18.294;2023-10-13T13:55:35;15.85;;;2.20;;
76310;SDS011;65120;59.304;18.294;2023-10-13T13:58:05;13.93;;;1.02;;
76310;SDS011;65120;59.304;18.294;2023-10-13T14:00:35;12.88;;;0.82;;
76310;SDS011;65120;59.304;18.294;2023-10-13T14:03:04;14.38;;;0.73;;
76310;SDS011;65120;59.304;18.294;2023-10-13T14:05:40;11.15;;;1.48;;
76310;SDS011;65120;59.304;18.294;2023-10-13T14:08:07;9.15;;;1.27;;
76310;SDS011;65120;59.304;18.294;2023-10-13T14:10:38;15.05;;;1.02;;
76310;SDS011;65120;59.304;18.294;2023-10-13T14:13:19;18.13;;;1.17;;
76310;SDS011;65120;59.304;18.294;2023-10-13T14:15:47;18.00;;;2.10;;
76310;SDS011;65120;59.304;18.294;2023-10-13T14:18:13;8.82;;;1.90;;
76310;SDS011;65120;59.304;18.294;2023-10-13T14:20:43;11.55;;;0.90;;
76310;SDS011;65120;59.304;18.294;2023-10-13T14:23:09;13.18;;;1.15;;
76310;SDS011;65120;59.304;18.294;2023-10-13T14:25:39;15.52;;;2.65;;
76310;SDS011;65120;59.304;18.294;2023-10-13T14:28:09;13.27;;;1.35;;
76310;SDS011;65120;59.304;18.294;2023-10-13T14:30:42;15.77;;;0.70;;
76310;SDS011;65120;59.304;18.294;2023-10-13T14:33:09;19.55;;;0.90;;
76310;SDS011;65120;59.304;18.294;2023-10-13T14:35:36;10.40;;;0.80;;
76310;SDS011;65120;59.304;18.294;2023-10-13T14:38:03;18.25;;;1.05;;
76310;SDS011;65120;59.304;18.294;2023-10-13T14:40:31;14.13;;;1.40;;
76310;SDS011;65120;59.304;18.294;2023-10-13T14:43:02;19.38;;;1.58;;
76310;SDS011;65120;59.304;18.294;2023-10-13T14:48:01;19.25;;;0.88;;
76310;SDS011;65120;59.304;18.294;2023-10-13T14:50:30;17.75;;;1.00;;
76310;SDS011;65120;59.304;18.294;2023-10-13T14:52:58;12.52;;;1.50;;
76310;SDS011;65120;59.304;18.294;2023-10-13T14:55:25;14.95;;;1.30;;
76310;SDS011;65120;59.304;18.294;2023-10-13T14:58:04;16.92;;;2.15;;
76310;SDS011;65120;59.304;18.294;2023-10-13T15:00:33;14.25;;;1.55;;
76310;SDS011;65120;59.304;18.294;2023-10-13T15:03:01;19.67;;;1.40;;
76310;SDS011;65120;59.304;18.294;2023-10-13T15:05:31;16.33;;;1.60;;
76310;SDS011;65120;59.304;18.294;2023-10-13T15:08:00;16.35;;;2.22;;
76310;SDS011;65120;59.304;18.294;2023-10-13T15:10:28;17.13;;;1.05;;
76310;SDS011;65120;59.304;18.294;2023-10-13T15:12:55;11.23;;;0.75;;
76310;SDS011;65120;59.304;18.294;2023-10-13T15:15:25;13.15;;;1.33;;
76310;SDS011;65120;59.304;18.294;2023-10-13T15:17:55;10.40;;;1.15;;
76310;SDS011;65120;59.304;18.294;2023-10-13T15:20:22;9.05;;;1.02;;